sensor_id;sensor_type;location;lat;lon;timestamp;P1;durP1;ratioP1;P2;durP2;ratioP2
53652;SDS011;39553;52.954;5.932;2023-07-31T00:00:36;10.18;;;6.78;;
53652;SDS011;39553;52.954;5.932;2023-07-31T00:03:02;11.40;;;7.60;;
53652;SDS011;39553;52.954;5.932;2023-07-31T00:05:29;14.57;;;9.23;;
53652;SDS011;39553;52.954;5.932;2023-07-31T00:07:56;15.80;;;9.63;;
53652;SDS011;39553;52.954;5.932;2023-07-31T00:10:22;16.33;;;9.10;;
53652;SDS011;39553;52.954;5.932;2023-07-31T00:12:48;14.13;;;8.38;;
53652;SDS011;39553;52.954;5.932;2023-07-31T00:15:14;13.07;;;8.75;;
53652;SDS011;39553;52.954;5.932;2023-07-31T00:17:40;12.00;;;8.73;;
53652;SDS011;39553;52.954;5.932;2023-07-31T00:20:07;16.77;;;6.70;;
53652;SDS011;39553;52.954;5.932;2023-07-31T00:22:33;15.63;;;8.80;;
53652;SDS011;39553;52.954;5.932;2023-07-31T00:24:59;13.93;;;8.32;;
53652;SDS011;39553;52.954;5.932;2023-07-31T00:27:25;15.65;;;7.60;;
53652;SDS011;39553;52.954;5.932;2023-07-31T00:29:51;9.52;;;4.85;;
53652;SDS011;39553;52.954;5.932;2023-07-31T00:32:19;7.32;;;2.60;;
53652;SDS011;39553;52.954;5.932;2023-07-31T00:34:45;6.18;;;1.98;;
53652;SDS011;39553;52.954;5.932;2023-07-31T00:37:11;4.20;;;1.65;;
53652;SDS011;39553;52.954;5.932;2023-07-31T00:39:37;6.35;;;1.60;;
53652;SDS011;39553;52.954;5.932;2023-07-31T00:42:03;8.95;;;1.73;;
53652;SDS011;39553;52.954;5.932;2023-07-31T00:44:30;4.10;;;1.40;;
53652;SDS011;39553;52.954;5.932;2023-07-31T00:46:56;2.03;;;1.17;;
53652;SDS011;39553;52.954;5.932;2023-07-31T00:49:24;1.73;;;1.25;;
53652;SDS011;39553;52.954;5.932;2023-07-31T00:51:50;3.47;;;1.58;;
53652;SDS011;39553;52.954;5.932;2023-07-31T00:54:17;4.57;;;1.48;;
53652;SDS011;39553;52.954;5.932;2023-07-31T00:56:44;4.82;;;1.45;;
53652;SDS011;39553;52.954;5.932;2023-07-31T00:59:10;3.90;;;1.55;;
53652;SDS011;39553;52.954;5.932;2023-07-31T01:01:37;5.90;;;1.83;;
53652;SDS011;39553;52.954;5.932;2023-07-31T01:04:03;4.18;;;1.58;;
53652;SDS011;39553;52.954;5.932;2023-07-31T01:09:03;4.45;;;2.08;;
53652;SDS011;39553;52.954;5.932;2023-07-31T01:11:33;4.35;;;1.90;;
53652;SDS011;39553;52.954;5.932;2023-07-31T01:14:00;5.53;;;2.58;;
53652;SDS011;39553;52.954;5.932;2023-07-31T01:16:27;7.78;;;3.05;;
53652;SDS011;39553;52.954;5.932;2023-07-31T01:18:54;8.25;;;2.70;;
53652;SDS011;39553;52.954;5.932;2023-07-31T01:24:07;8.60;;;3.25;;
53652;SDS011;39553;52.954;5.932;2023-07-31T01:26:34;5.03;;;3.22;;
53652;SDS011;39553;52.954;5.932;2023-07-31T01:29:20;6.10;;;3.05;;
53652;SDS011;39553;52.954;5.932;2023-07-31T01:31:50;7.80;;;2.78;;
53652;SDS011;39553;52.954;5.932;2023-07-31T01:34:19;4.72;;;2.60;;
53652;SDS011;39553;52.954;5.932;2023-07-31T01:36:46;5.88;;;3.00;;
53652;SDS011;39553;52.954;5.932;2023-07-31T01:39:12;13.50;;;3.72;;
53652;SDS011;39553;52.954;5.932;2023-07-31T01:41:40;5.00;;;3.08;;
53652;SDS011;39553;52.954;5.932;2023-07-31T01:44:06;7.25;;;3.53;;
53652;SDS011;39553;52.954;5.932;2023-07-31T01:46:32;10.18;;;3.10;;
53652;SDS011;39553;52.954;5.932;2023-07-31T01:48:59;7.03;;;3.47;;
53652;SDS011;39553;52.954;5.932;2023-07-31T01:51:25;14.13;;;3.50;;
53652;SDS011;39553;52.954;5.932;2023-07-31T01:53:51;7.85;;;3.42;;
53652;SDS011;39553;52.954;5.932;2023-07-31T01:56:17;10.25;;;3.60;;
53652;SDS011;39553;52.954;5.932;2023-07-31T01:58:43;11.05;;;3.65;;
53652;SDS011;39553;52.954;5.932;2023-07-31T02:01:09;12.43;;;3.85;;
53652;SDS011;39553;52.954;5.932;2023-07-31T02:03:35;5.80;;;2.55;;
53652;SDS011;39553;52.954;5.932;2023-07-31T02:06:01;9.15;;;3.25;;
53652;SDS011;39553;52.954;5.932;2023-07-31T02:08:28;8.38;;;2.50;;
53652;SDS011;39553;52.954;5.932;2023-07-31T02:10:54;9.90;;;3.00;;
53652;SDS011;39553;52.954;5.932;2023-07-31T02:13:20;8.82;;;2.50;;
53652;SDS011;39553;52.954;5.932;2023-07-31T02:15:46;10.93;;;2.88;;
53652;SDS011;39553;52.954;5.932;2023-07-31T02:18:12;10.88;;;3.38;;
53652;SDS011;39553;52.954;5.932;2023-07-31T02:20:38;9.07;;;3.13;;
53652;SDS011;39553;52.954;5.932;2023-07-31T02:23:07;10.00;;;3.10;;
53652;SDS011;39553;52.954;5.932;2023-07-31T02:25:38;7.18;;;2.83;;
53652;SDS011;39553;52.954;5.932;2023-07-31T02:28:08;4.30;;;2.35;;
53652;SDS011;39553;52.954;5.932;2023-07-31T02:30:34;11.23;;;3.05;;
53652;SDS011;39553;52.954;5.932;2023-07-31T02:33:00;6.78;;;2.80;;
53652;SDS011;39553;52.954;5.932;2023-07-31T02:35:26;7.28;;;2.50;;
53652;SDS011;39553;52.954;5.932;2023-07-31T02:37:52;9.80;;;2.70;;
53652;SDS011;39553;52.954;5.932;2023-07-31T02:40:18;5.18;;;2.30;;
53652;SDS011;39553;52.954;5.932;2023-07-31T02:42:44;6.55;;;2.40;;
53652;SDS011;39553;52.954;5.932;2023-07-31T02:45:10;5.28;;;2.97;;
53652;SDS011;39553;52.954;5.932;2023-07-31T02:47:36;5.18;;;2.35;;
53652;SDS011;39553;52.954;5.932;2023-07-31T02:50:03;3.63;;;1.85;;
53652;SDS011;39553;52.954;5.932;2023-07-31T02:52:30;4.70;;;2.25;;
53652;SDS011;39553;52.954;5.932;2023-07-31T02:54:57;2.53;;;1.67;;
53652;SDS011;39553;52.954;5.932;2023-07-31T02:57:23;2.55;;;1.60;;
53652;SDS011;39553;52.954;5.932;2023-07-31T02:59:49;2.63;;;1.90;;
53652;SDS011;39553;52.954;5.932;2023-07-31T03:02:15;6.55;;;1.92;;
53652;SDS011;39553;52.954;5.932;2023-07-31T03:04:41;4.72;;;1.73;;
53652;SDS011;39553;52.954;5.932;2023-07-31T03:07:07;2.72;;;1.73;;
53652;SDS011;39553;52.954;5.932;2023-07-31T03:09:33;3.13;;;1.80;;
53652;SDS011;39553;52.954;5.932;2023-07-31T03:11:59;6.53;;;2.20;;
53652;SDS011;39553;52.954;5.932;2023-07-31T03:14:25;3.45;;;2.17;;
53652;SDS011;39553;52.954;5.932;2023-07-31T03:16:52;5.15;;;2.15;;
53652;SDS011;39553;52.954;5.932;2023-07-31T03:19:18;7.05;;;2.03;;
53652;SDS011;39553;52.954;5.932;2023-07-31T03:21:44;4.68;;;1.90;;
53652;SDS011;39553;52.954;5.932;2023-07-31T03:24:10;7.38;;;1.90;;
53652;SDS011;39553;52.954;5.932;2023-07-31T03:26:37;3.83;;;2.10;;
53652;SDS011;39553;52.954;5.932;2023-07-31T03:29:06;6.97;;;2.30;;
53652;SDS011;39553;52.954;5.932;2023-07-31T03:31:32;4.97;;;2.08;;
53652;SDS011;39553;52.954;5.932;2023-07-31T03:33:58;3.50;;;1.63;;
53652;SDS011;39553;52.954;5.932;2023-07-31T03:36:24;3.38;;;1.92;;
53652;SDS011;39553;52.954;5.932;2023-07-31T03:38:54;6.43;;;1.80;;
53652;SDS011;39553;52.954;5.932;2023-07-31T03:41:20;6.28;;;2.15;;
53652;SDS011;39553;52.954;5.932;2023-07-31T03:43:48;4.45;;;1.92;;
53652;SDS011;39553;52.954;5.932;2023-07-31T03:46:16;4.82;;;2.30;;
53652;SDS011;39553;52.954;5.932;2023-07-31T03:48:43;7.53;;;2.78;;
53652;SDS011;39553;52.954;5.932;2023-07-31T03:51:09;11.07;;;3.05;;
53652;SDS011;39553;52.954;5.932;2023-07-31T03:53:35;8.55;;;3.67;;
53652;SDS011;39553;52.954;5.932;2023-07-31T03:56:01;12.95;;;4.30;;
53652;SDS011;39553;52.954;5.932;2023-07-31T03:58:27;8.35;;;4.00;;
53652;SDS011;39553;52.954;5.932;2023-07-31T04:00:53;8.05;;;3.55;;
53652;SDS011;39553;52.954;5.932;2023-07-31T04:03:19;11.02;;;4.10;;
53652;SDS011;39553;52.954;5.932;2023-07-31T04:05:45;16.17;;;4.25;;
53652;SDS011;39553;52.954;5.932;2023-07-31T04:08:11;13.75;;;4.82;;
53652;SDS011;39553;52.954;5.932;2023-07-31T04:10:37;9.70;;;4.25;;
53652;SDS011;39553;52.954;5.932;2023-07-31T04:13:04;13.60;;;4.88;;
53652;SDS011;39553;52.954;5.932;2023-07-31T04:15:30;14.10;;;5.15;;
53652;SDS011;39553;52.954;5.932;2023-07-31T04:17:56;9.32;;;4.00;;
53652;SDS011;39553;52.954;5.932;2023-07-31T04:20:22;11.15;;;4.53;;
53652;SDS011;39553;52.954;5.932;2023-07-31T04:22:48;11.63;;;5.13;;
53652;SDS011;39553;52.954;5.932;2023-07-31T04:25:14;13.95;;;4.47;;
53652;SDS011;39553;52.954;5.932;2023-07-31T04:27:40;12.13;;;5.15;;
53652;SDS011;39553;52.954;5.932;2023-07-31T04:30:07;12.00;;;4.00;;
53652;SDS011;39553;52.954;5.932;2023-07-31T04:32:33;19.00;;;5.53;;
53652;SDS011;39553;52.954;5.932;2023-07-31T04:35:00;15.75;;;6.72;;
53652;SDS011;39553;52.954;5.932;2023-07-31T04:37:26;16.50;;;6.25;;
53652;SDS011;39553;52.954;5.932;2023-07-31T04:39:53;16.92;;;6.40;;
53652;SDS011;39553;52.954;5.932;2023-07-31T04:42:19;18.50;;;7.22;;
53652;SDS011;39553;52.954;5.932;2023-07-31T04:44:45;23.38;;;7.65;;
53652;SDS011;39553;52.954;5.932;2023-07-31T04:47:11;27.00;;;8.88;;
53652;SDS011;39553;52.954;5.932;2023-07-31T04:49:37;30.65;;;8.88;;
53652;SDS011;39553;52.954;5.932;2023-07-31T04:52:04;38.80;;;10.85;;
53652;SDS011;39553;52.954;5.932;2023-07-31T04:54:30;39.60;;;11.40;;
53652;SDS011;39553;52.954;5.932;2023-07-31T04:56:56;37.75;;;10.55;;
53652;SDS011;39553;52.954;5.932;2023-07-31T04:59:23;40.47;;;11.93;;
53652;SDS011;39553;52.954;5.932;2023-07-31T05:01:49;42.65;;;11.45;;
53652;SDS011;39553;52.954;5.932;2023-07-31T05:04:15;36.78;;;12.13;;
53652;SDS011;39553;52.954;5.932;2023-07-31T05:06:41;38.45;;;11.70;;
53652;SDS011;39553;52.954;5.932;2023-07-31T05:09:07;38.58;;;11.68;;
53652;SDS011;39553;52.954;5.932;2023-07-31T05:11:37;38.33;;;11.98;;
53652;SDS011;39553;52.954;5.932;2023-07-31T05:14:05;35.60;;;9.63;;
53652;SDS011;39553;52.954;5.932;2023-07-31T05:16:31;43.50;;;9.98;;
53652;SDS011;39553;52.954;5.932;2023-07-31T05:18:57;40.33;;;11.27;;
53652;SDS011;39553;52.954;5.932;2023-07-31T05:21:23;35.72;;;10.07;;
53652;SDS011;39553;52.954;5.932;2023-07-31T05:23:49;30.83;;;10.48;;
53652;SDS011;39553;52.954;5.932;2023-07-31T05:26:16;36.65;;;9.98;;
53652;SDS011;39553;52.954;5.932;2023-07-31T05:28:43;34.45;;;10.27;;
53652;SDS011;39553;52.954;5.932;2023-07-31T05:31:09;32.13;;;10.63;;
53652;SDS011;39553;52.954;5.932;2023-07-31T05:33:35;31.58;;;10.15;;
53652;SDS011;39553;52.954;5.932;2023-07-31T05:36:01;40.50;;;9.95;;
53652;SDS011;39553;52.954;5.932;2023-07-31T05:38:27;38.78;;;11.40;;
53652;SDS011;39553;52.954;5.932;2023-07-31T05:40:54;34.45;;;9.85;;
53652;SDS011;39553;52.954;5.932;2023-07-31T05:43:20;34.22;;;10.20;;
53652;SDS011;39553;52.954;5.932;2023-07-31T05:45:47;36.63;;;9.38;;
53652;SDS011;39553;52.954;5.932;2023-07-31T05:48:13;32.53;;;7.97;;
53652;SDS011;39553;52.954;5.932;2023-07-31T05:50:40;29.85;;;9.70;;
53652;SDS011;39553;52.954;5.932;2023-07-31T05:53:06;35.05;;;8.90;;
53652;SDS011;39553;52.954;5.932;2023-07-31T05:55:33;28.50;;;9.13;;
53652;SDS011;39553;52.954;5.932;2023-07-31T05:57:59;28.05;;;8.38;;
53652;SDS011;39553;52.954;5.932;2023-07-31T06:00:25;28.67;;;8.40;;
53652;SDS011;39553;52.954;5.932;2023-07-31T06:02:52;19.38;;;8.20;;
53652;SDS011;39553;52.954;5.932;2023-07-31T06:05:18;26.33;;;8.07;;
53652;SDS011;39553;52.954;5.932;2023-07-31T06:07:45;28.52;;;8.00;;
53652;SDS011;39553;52.954;5.932;2023-07-31T06:10:11;31.50;;;9.52;;
53652;SDS011;39553;52.954;5.932;2023-07-31T06:12:38;27.70;;;9.27;;
53652;SDS011;39553;52.954;5.932;2023-07-31T06:15:04;28.98;;;8.57;;
53652;SDS011;39553;52.954;5.932;2023-07-31T06:17:30;26.85;;;9.25;;
53652;SDS011;39553;52.954;5.932;2023-07-31T06:19:57;27.55;;;9.00;;
53652;SDS011;39553;52.954;5.932;2023-07-31T06:22:23;24.80;;;8.35;;
53652;SDS011;39553;52.954;5.932;2023-07-31T06:24:49;22.67;;;8.65;;
53652;SDS011;39553;52.954;5.932;2023-07-31T06:27:15;25.83;;;8.73;;
53652;SDS011;39553;52.954;5.932;2023-07-31T06:29:42;29.95;;;9.82;;
53652;SDS011;39553;52.954;5.932;2023-07-31T06:32:08;31.30;;;10.93;;
53652;SDS011;39553;52.954;5.932;2023-07-31T06:34:34;24.77;;;8.85;;
53652;SDS011;39553;52.954;5.932;2023-07-31T06:37:00;16.05;;;5.65;;
53652;SDS011;39553;52.954;5.932;2023-07-31T06:39:26;15.45;;;4.75;;
53652;SDS011;39553;52.954;5.932;2023-07-31T06:41:52;13.07;;;4.63;;
53652;SDS011;39553;52.954;5.932;2023-07-31T06:44:18;8.45;;;3.33;;
53652;SDS011;39553;52.954;5.932;2023-07-31T06:46:44;14.35;;;4.82;;
53652;SDS011;39553;52.954;5.932;2023-07-31T06:49:10;11.00;;;4.97;;
53652;SDS011;39553;52.954;5.932;2023-07-31T06:51:36;13.57;;;4.90;;
53652;SDS011;39553;52.954;5.932;2023-07-31T06:54:03;11.00;;;5.05;;
53652;SDS011;39553;52.954;5.932;2023-07-31T06:56:29;12.07;;;4.15;;
53652;SDS011;39553;52.954;5.932;2023-07-31T06:58:55;10.85;;;3.80;;
53652;SDS011;39553;52.954;5.932;2023-07-31T07:01:22;6.53;;;3.45;;
53652;SDS011;39553;52.954;5.932;2023-07-31T07:03:48;7.60;;;2.83;;
53652;SDS011;39553;52.954;5.932;2023-07-31T07:06:16;10.82;;;3.15;;
53652;SDS011;39553;52.954;5.932;2023-07-31T07:08:44;12.65;;;3.00;;
53652;SDS011;39553;52.954;5.932;2023-07-31T07:11:10;8.05;;;3.00;;
53652;SDS011;39553;52.954;5.932;2023-07-31T07:13:36;6.60;;;2.80;;
53652;SDS011;39553;52.954;5.932;2023-07-31T07:16:02;2.67;;;1.63;;
53652;SDS011;39553;52.954;5.932;2023-07-31T07:18:28;5.10;;;1.90;;
53652;SDS011;39553;52.954;5.932;2023-07-31T07:20:54;3.22;;;1.75;;
53652;SDS011;39553;52.954;5.932;2023-07-31T07:23:23;4.47;;;1.55;;
53652;SDS011;39553;52.954;5.932;2023-07-31T07:25:49;4.43;;;1.55;;
53652;SDS011;39553;52.954;5.932;2023-07-31T07:28:16;4.68;;;1.80;;
53652;SDS011;39553;52.954;5.932;2023-07-31T07:30:42;8.98;;;2.20;;
53652;SDS011;39553;52.954;5.932;2023-07-31T07:33:09;4.30;;;1.88;;
53652;SDS011;39553;52.954;5.932;2023-07-31T07:35:35;3.20;;;1.63;;
53652;SDS011;39553;52.954;5.932;2023-07-31T07:38:02;3.47;;;1.48;;
53652;SDS011;39553;52.954;5.932;2023-07-31T07:40:28;4.65;;;1.85;;
53652;SDS011;39553;52.954;5.932;2023-07-31T07:42:54;3.35;;;1.90;;
53652;SDS011;39553;52.954;5.932;2023-07-31T07:45:20;2.47;;;1.50;;
53652;SDS011;39553;52.954;5.932;2023-07-31T07:47:46;3.92;;;1.80;;
53652;SDS011;39553;52.954;5.932;2023-07-31T07:50:12;2.75;;;1.50;;
53652;SDS011;39553;52.954;5.932;2023-07-31T07:52:38;1.88;;;1.10;;
53652;SDS011;39553;52.954;5.932;2023-07-31T07:55:05;2.40;;;1.30;;
53652;SDS011;39553;52.954;5.932;2023-07-31T07:57:31;1.33;;;0.93;;
53652;SDS011;39553;52.954;5.932;2023-07-31T07:59:57;2.25;;;1.35;;
53652;SDS011;39553;52.954;5.932;2023-07-31T08:02:23;1.88;;;1.25;;
53652;SDS011;39553;52.954;5.932;2023-07-31T08:04:49;2.28;;;1.35;;
53652;SDS011;39553;52.954;5.932;2023-07-31T08:07:15;2.05;;;1.30;;
53652;SDS011;39553;52.954;5.932;2023-07-31T08:09:41;1.77;;;1.27;;
53652;SDS011;39553;52.954;5.932;2023-07-31T08:12:08;1.65;;;1.10;;
53652;SDS011;39553;52.954;5.932;2023-07-31T08:14:34;2.22;;;1.27;;
53652;SDS011;39553;52.954;5.932;2023-07-31T08:17:01;2.97;;;1.10;;
53652;SDS011;39553;52.954;5.932;2023-07-31T08:19:27;3.75;;;1.25;;
53652;SDS011;39553;52.954;5.932;2023-07-31T08:21:54;6.07;;;1.30;;
53652;SDS011;39553;52.954;5.932;2023-07-31T08:24:20;3.10;;;1.30;;
53652;SDS011;39553;52.954;5.932;2023-07-31T08:26:46;1.88;;;1.20;;
53652;SDS011;39553;52.954;5.932;2023-07-31T08:29:13;4.35;;;1.83;;
53652;SDS011;39553;52.954;5.932;2023-07-31T08:31:39;2.47;;;1.58;;
53652;SDS011;39553;52.954;5.932;2023-07-31T08:34:05;5.05;;;1.17;;
53652;SDS011;39553;52.954;5.932;2023-07-31T08:36:32;1.85;;;1.00;;
53652;SDS011;39553;52.954;5.932;2023-07-31T08:38:58;4.65;;;1.13;;
53652;SDS011;39553;52.954;5.932;2023-07-31T08:41:24;0.98;;;0.80;;
53652;SDS011;39553;52.954;5.932;2023-07-31T08:43:50;1.88;;;1.15;;
53652;SDS011;39553;52.954;5.932;2023-07-31T08:46:17;1.13;;;0.88;;
53652;SDS011;39553;52.954;5.932;2023-07-31T08:48:44;2.35;;;0.90;;
53652;SDS011;39553;52.954;5.932;2023-07-31T08:51:13;1.08;;;0.73;;
53652;SDS011;39553;52.954;5.932;2023-07-31T08:53:39;1.30;;;0.80;;
53652;SDS011;39553;52.954;5.932;2023-07-31T08:56:06;2.45;;;1.20;;
53652;SDS011;39553;52.954;5.932;2023-07-31T08:58:32;3.50;;;1.20;;
53652;SDS011;39553;52.954;5.932;2023-07-31T09:00:58;1.10;;;0.80;;
53652;SDS011;39553;52.954;5.932;2023-07-31T09:03:26;3.88;;;0.80;;
53652;SDS011;39553;52.954;5.932;2023-07-31T09:05:52;2.58;;;0.70;;
53652;SDS011;39553;52.954;5.932;2023-07-31T09:08:20;1.75;;;0.80;;
53652;SDS011;39553;52.954;5.932;2023-07-31T09:10:46;1.65;;;0.90;;
53652;SDS011;39553;52.954;5.932;2023-07-31T09:13:13;1.40;;;0.70;;
53652;SDS011;39553;52.954;5.932;2023-07-31T09:15:40;2.13;;;0.80;;
53652;SDS011;39553;52.954;5.932;2023-07-31T09:18:06;2.70;;;0.70;;
53652;SDS011;39553;52.954;5.932;2023-07-31T09:20:33;1.77;;;0.70;;
53652;SDS011;39553;52.954;5.932;2023-07-31T09:25:51;3.92;;;1.20;;
53652;SDS011;39553;52.954;5.932;2023-07-31T09:28:17;4.45;;;1.40;;
53652;SDS011;39553;52.954;5.932;2023-07-31T09:30:45;2.38;;;0.77;;
53652;SDS011;39553;52.954;5.932;2023-07-31T09:33:13;5.63;;;1.30;;
53652;SDS011;39553;52.954;5.932;2023-07-31T09:35:39;2.03;;;0.73;;
53652;SDS011;39553;52.954;5.932;2023-07-31T09:38:06;1.58;;;0.80;;
53652;SDS011;39553;52.954;5.932;2023-07-31T09:40:37;3.17;;;0.95;;
53652;SDS011;39553;52.954;5.932;2023-07-31T09:43:05;1.98;;;0.90;;
53652;SDS011;39553;52.954;5.932;2023-07-31T09:45:34;3.25;;;1.02;;
53652;SDS011;39553;52.954;5.932;2023-07-31T09:48:01;3.20;;;1.00;;
53652;SDS011;39553;52.954;5.932;2023-07-31T09:50:28;2.08;;;1.00;;
53652;SDS011;39553;52.954;5.932;2023-07-31T09:52:55;4.03;;;1.00;;
53652;SDS011;39553;52.954;5.932;2023-07-31T09:55:21;5.28;;;1.23;;
53652;SDS011;39553;52.954;5.932;2023-07-31T09:57:48;4.63;;;1.30;;
53652;SDS011;39553;52.954;5.932;2023-07-31T10:00:15;4.57;;;1.52;;
53652;SDS011;39553;52.954;5.932;2023-07-31T10:02:43;6.80;;;1.55;;
53652;SDS011;39553;52.954;5.932;2023-07-31T10:05:10;1.08;;;0.93;;
53652;SDS011;39553;52.954;5.932;2023-07-31T10:07:38;2.80;;;0.90;;
53652;SDS011;39553;52.954;5.932;2023-07-31T10:10:09;2.88;;;1.25;;
53652;SDS011;39553;52.954;5.932;2023-07-31T10:12:36;2.70;;;1.60;;
53652;SDS011;39553;52.954;5.932;2023-07-31T10:15:03;4.13;;;2.00;;
53652;SDS011;39553;52.954;5.932;2023-07-31T10:17:30;5.97;;;2.00;;
53652;SDS011;39553;52.954;5.932;2023-07-31T10:19:59;9.00;;;2.17;;
53652;SDS011;39553;52.954;5.932;2023-07-31T10:22:26;5.20;;;1.70;;
53652;SDS011;39553;52.954;5.932;2023-07-31T10:24:54;3.35;;;1.80;;
53652;SDS011;39553;52.954;5.932;2023-07-31T10:27:20;7.53;;;1.98;;
53652;SDS011;39553;52.954;5.932;2023-07-31T10:29:46;8.32;;;2.83;;
53652;SDS011;39553;52.954;5.932;2023-07-31T10:32:13;10.07;;;3.03;;
53652;SDS011;39553;52.954;5.932;2023-07-31T10:34:41;8.68;;;3.17;;
53652;SDS011;39553;52.954;5.932;2023-07-31T10:42:35;2.47;;;1.23;;
53652;SDS011;39553;52.954;5.932;2023-07-31T10:45:06;1.15;;;0.80;;
53652;SDS011;39553;52.954;5.932;2023-07-31T10:50:21;1.60;;;0.68;;
53652;SDS011;39553;52.954;5.932;2023-07-31T10:52:49;1.37;;;0.77;;
53652;SDS011;39553;52.954;5.932;2023-07-31T10:55:24;1.05;;;0.80;;
53652;SDS011;39553;52.954;5.932;2023-07-31T10:57:50;2.75;;;0.88;;
53652;SDS011;39553;52.954;5.932;2023-07-31T11:08:25;1.83;;;1.30;;
53652;SDS011;39553;52.954;5.932;2023-07-31T11:14:12;4.50;;;2.03;;
53652;SDS011;39553;52.954;5.932;2023-07-31T11:16:23;3.88;;;1.95;;
53652;SDS011;39553;52.954;5.932;2023-07-31T11:18:50;21.15;;;13.50;;
53652;SDS011;39553;52.954;5.932;2023-07-31T11:21:20;9.68;;;5.93;;
53652;SDS011;39553;52.954;5.932;2023-07-31T11:23:47;18.30;;;11.43;;
53652;SDS011;39553;52.954;5.932;2023-07-31T11:26:13;7.72;;;3.15;;
53652;SDS011;39553;52.954;5.932;2023-07-31T11:28:40;5.97;;;2.95;;
53652;SDS011;39553;52.954;5.932;2023-07-31T11:31:09;7.05;;;3.67;;
53652;SDS011;39553;52.954;5.932;2023-07-31T11:33:39;8.57;;;4.95;;
53652;SDS011;39553;52.954;5.932;2023-07-31T11:36:18;8.98;;;3.67;;
53652;SDS011;39553;52.954;5.932;2023-07-31T11:38:44;6.43;;;3.10;;
53652;SDS011;39553;52.954;5.932;2023-07-31T11:41:13;10.77;;;4.97;;
53652;SDS011;39553;52.954;5.932;2023-07-31T11:43:39;8.50;;;3.22;;
53652;SDS011;39553;52.954;5.932;2023-07-31T11:46:05;6.63;;;3.78;;
53652;SDS011;39553;52.954;5.932;2023-07-31T11:48:41;9.05;;;3.38;;
53652;SDS011;39553;52.954;5.932;2023-07-31T11:51:16;7.68;;;3.22;;
53652;SDS011;39553;52.954;5.932;2023-07-31T11:56:10;8.32;;;3.55;;
53652;SDS011;39553;52.954;5.932;2023-07-31T11:58:37;6.47;;;3.35;;
53652;SDS011;39553;52.954;5.932;2023-07-31T12:01:04;6.57;;;3.00;;
53652;SDS011;39553;52.954;5.932;2023-07-31T12:03:31;8.95;;;3.47;;
53652;SDS011;39553;52.954;5.932;2023-07-31T12:05:58;8.23;;;3.25;;
53652;SDS011;39553;52.954;5.932;2023-07-31T12:08:24;9.52;;;3.50;;
53652;SDS011;39553;52.954;5.932;2023-07-31T12:10:51;3.90;;;2.20;;
53652;SDS011;39553;52.954;5.932;2023-07-31T12:13:22;2.78;;;2.25;;
53652;SDS011;39553;52.954;5.932;2023-07-31T12:15:49;7.38;;;2.80;;
53652;SDS011;39553;52.954;5.932;2023-07-31T12:18:22;4.20;;;2.63;;
53652;SDS011;39553;52.954;5.932;2023-07-31T12:20:49;8.07;;;2.95;;
53652;SDS011;39553;52.954;5.932;2023-07-31T12:23:20;21.52;;;4.10;;
53652;SDS011;39553;52.954;5.932;2023-07-31T12:28:29;10.53;;;4.30;;
53652;SDS011;39553;52.954;5.932;2023-07-31T12:30:56;8.63;;;4.40;;
53652;SDS011;39553;52.954;5.932;2023-07-31T12:33:24;12.07;;;4.45;;
53652;SDS011;39553;52.954;5.932;2023-07-31T12:35:55;11.27;;;3.55;;
53652;SDS011;39553;52.954;5.932;2023-07-31T12:38:22;9.43;;;4.57;;
53652;SDS011;39553;52.954;5.932;2023-07-31T12:40:48;15.32;;;4.22;;
53652;SDS011;39553;52.954;5.932;2023-07-31T12:43:15;15.88;;;4.57;;
53652;SDS011;39553;52.954;5.932;2023-07-31T12:45:41;15.75;;;3.53;;
53652;SDS011;39553;52.954;5.932;2023-07-31T12:48:07;9.70;;;4.72;;
53652;SDS011;39553;52.954;5.932;2023-07-31T12:50:33;11.07;;;3.20;;
53652;SDS011;39553;52.954;5.932;2023-07-31T12:53:02;12.13;;;3.55;;
53652;SDS011;39553;52.954;5.932;2023-07-31T12:55:28;8.05;;;3.10;;
53652;SDS011;39553;52.954;5.932;2023-07-31T12:57:55;8.57;;;3.08;;
53652;SDS011;39553;52.954;5.932;2023-07-31T13:00:21;6.93;;;2.60;;
53652;SDS011;39553;52.954;5.932;2023-07-31T13:02:48;11.38;;;3.45;;
53652;SDS011;39553;52.954;5.932;2023-07-31T13:05:14;6.60;;;3.03;;
53652;SDS011;39553;52.954;5.932;2023-07-31T13:07:44;9.23;;;3.33;;
53652;SDS011;39553;52.954;5.932;2023-07-31T13:10:11;9.63;;;2.97;;
53652;SDS011;39553;52.954;5.932;2023-07-31T13:12:37;9.68;;;3.28;;
53652;SDS011;39553;52.954;5.932;2023-07-31T13:15:06;14.23;;;3.90;;
53652;SDS011;39553;52.954;5.932;2023-07-31T13:17:33;13.38;;;3.85;;
53652;SDS011;39553;52.954;5.932;2023-07-31T13:19:59;10.35;;;3.53;;
53652;SDS011;39553;52.954;5.932;2023-07-31T13:22:25;9.25;;;3.35;;
53652;SDS011;39553;52.954;5.932;2023-07-31T13:24:51;12.95;;;3.35;;
53652;SDS011;39553;52.954;5.932;2023-07-31T13:27:18;14.73;;;4.40;;
53652;SDS011;39553;52.954;5.932;2023-07-31T13:29:45;9.93;;;3.65;;
53652;SDS011;39553;52.954;5.932;2023-07-31T13:32:11;10.93;;;3.97;;
53652;SDS011;39553;52.954;5.932;2023-07-31T13:34:39;11.35;;;4.32;;
53652;SDS011;39553;52.954;5.932;2023-07-31T13:37:05;12.57;;;4.70;;
53652;SDS011;39553;52.954;5.932;2023-07-31T13:39:31;9.98;;;3.78;;
53652;SDS011;39553;52.954;5.932;2023-07-31T13:41:59;13.15;;;3.90;;
53652;SDS011;39553;52.954;5.932;2023-07-31T13:44:26;7.75;;;3.10;;
53652;SDS011;39553;52.954;5.932;2023-07-31T13:46:52;14.02;;;3.85;;
53652;SDS011;39553;52.954;5.932;2023-07-31T13:49:18;11.40;;;3.17;;
53652;SDS011;39553;52.954;5.932;2023-07-31T13:51:44;10.65;;;4.07;;
53652;SDS011;39553;52.954;5.932;2023-07-31T13:54:11;9.55;;;3.65;;
53652;SDS011;39553;52.954;5.932;2023-07-31T13:56:37;8.88;;;4.28;;
53652;SDS011;39553;52.954;5.932;2023-07-31T13:59:05;11.07;;;3.85;;
53652;SDS011;39553;52.954;5.932;2023-07-31T14:01:31;10.10;;;3.65;;
53652;SDS011;39553;52.954;5.932;2023-07-31T14:03:57;8.15;;;3.67;;
53652;SDS011;39553;52.954;5.932;2023-07-31T14:06:23;12.65;;;4.28;;
53652;SDS011;39553;52.954;5.932;2023-07-31T14:08:51;10.15;;;3.95;;
53652;SDS011;39553;52.954;5.932;2023-07-31T14:11:19;8.05;;;3.53;;
53652;SDS011;39553;52.954;5.932;2023-07-31T14:13:45;10.73;;;3.78;;
53652;SDS011;39553;52.954;5.932;2023-07-31T14:16:11;9.68;;;3.80;;
53652;SDS011;39553;52.954;5.932;2023-07-31T14:18:37;6.28;;;3.42;;
53652;SDS011;39553;52.954;5.932;2023-07-31T14:21:03;13.90;;;4.07;;
53652;SDS011;39553;52.954;5.932;2023-07-31T14:23:29;9.73;;;3.95;;
53652;SDS011;39553;52.954;5.932;2023-07-31T14:25:56;11.20;;;4.68;;
53652;SDS011;39553;52.954;5.932;2023-07-31T14:28:22;9.48;;;3.72;;
53652;SDS011;39553;52.954;5.932;2023-07-31T14:30:48;8.15;;;3.38;;
53652;SDS011;39553;52.954;5.932;2023-07-31T14:33:14;11.07;;;3.53;;
53652;SDS011;39553;52.954;5.932;2023-07-31T14:35:40;11.90;;;3.50;;
53652;SDS011;39553;52.954;5.932;2023-07-31T14:38:06;10.85;;;3.20;;
53652;SDS011;39553;52.954;5.932;2023-07-31T14:40:32;9.55;;;3.47;;
53652;SDS011;39553;52.954;5.932;2023-07-31T14:42:58;10.15;;;3.22;;
53652;SDS011;39553;52.954;5.932;2023-07-31T14:45:25;8.48;;;3.22;;
53652;SDS011;39553;52.954;5.932;2023-07-31T14:47:51;10.77;;;3.67;;
53652;SDS011;39553;52.954;5.932;2023-07-31T14:50:17;12.25;;;3.97;;
53652;SDS011;39553;52.954;5.932;2023-07-31T14:52:43;9.65;;;3.20;;
53652;SDS011;39553;52.954;5.932;2023-07-31T14:55:09;8.88;;;2.70;;
53652;SDS011;39553;52.954;5.932;2023-07-31T14:57:35;12.82;;;4.32;;
53652;SDS011;39553;52.954;5.932;2023-07-31T15:00:01;10.15;;;3.90;;
53652;SDS011;39553;52.954;5.932;2023-07-31T15:02:32;8.85;;;2.83;;
53652;SDS011;39553;52.954;5.932;2023-07-31T15:04:58;10.65;;;3.55;;
53652;SDS011;39553;52.954;5.932;2023-07-31T15:07:24;8.18;;;3.05;;
53652;SDS011;39553;52.954;5.932;2023-07-31T15:09:50;11.82;;;3.85;;